createdAt,value
2023-05-21T00:01:48.391Z,81.23
2023-05-21T00:04:16.332Z,81.20
2023-05-21T00:06:44.212Z,81.37
2023-05-21T00:09:13.055Z,81.45
2023-05-21T00:11:41.035Z,81.55
2023-05-21T00:14:08.941Z,81.78
2023-05-21T00:16:37.143Z,81.77
2023-05-21T00:19:05.101Z,81.96
2023-05-21T00:21:33.346Z,82.02
2023-05-21T00:24:01.320Z,82.09
2023-05-21T00:26:29.156Z,82.09
2023-05-21T00:28:57.819Z,82.35
2023-05-21T00:31:25.820Z,82.37
2023-05-21T00:33:53.951Z,82.42
2023-05-21T00:36:24.045Z,82.55
2023-05-21T00:38:52.233Z,82.62
2023-05-21T00:41:20.115Z,82.76
2023-05-21T00:43:48.410Z,82.79
2023-05-21T00:46:19.676Z,82.87
2023-05-21T00:48:49.504Z,83.06
2023-05-21T00:51:18.588Z,83.19
2023-05-21T00:53:46.748Z,83.06
2023-05-21T00:56:14.733Z,83.25
2023-05-21T00:58:42.730Z,83.29
2023-05-21T01:01:13.895Z,83.37
2023-05-21T01:03:42.356Z,83.40
2023-05-21T01:06:11.741Z,83.65
2023-05-21T01:08:41.237Z,83.73
2023-05-21T01:11:10.850Z,83.77
2023-05-21T01:13:41.406Z,83.90
2023-05-21T01:16:10.983Z,83.77
2023-05-21T01:18:39.826Z,83.98
2023-05-21T01:21:08.291Z,84.09
2023-05-21T01:23:36.253Z,84.13
2023-05-21T01:26:04.238Z,84.14
2023-05-21T01:28:34.479Z,84.35
2023-05-21T01:31:24.824Z,84.25
2023-05-21T01:33:56.344Z,84.51
2023-05-21T01:36:29.213Z,84.37
2023-05-21T01:39:23.424Z,84.61
2023-05-21T01:41:55.089Z,84.55
2023-05-21T01:44:26.599Z,84.70
2023-05-21T01:46:57.017Z,84.71
2023-05-21T01:49:25.893Z,84.63
2023-05-21T01:51:54.156Z,84.79
2023-05-21T01:54:24.089Z,84.84
2023-05-21T01:56:52.328Z,84.94
2023-05-21T01:59:21.328Z,84.95
2023-05-21T02:01:49.336Z,85.11
2023-05-21T02:04:17.377Z,85.10
2023-05-21T02:06:45.820Z,85.04
2023-05-21T02:09:13.852Z,85.25
2023-05-21T02:11:42.260Z,85.29
2023-05-21T02:14:14.306Z,85.48
2023-05-21T02:16:42.932Z,85.27
2023-05-21T02:19:12.345Z,85.48
2023-05-21T02:21:40.905Z,85.43
2023-05-21T02:24:09.288Z,85.40
2023-05-21T02:26:38.254Z,85.46
2023-05-21T02:29:06.665Z,85.61
2023-05-21T02:31:34.629Z,85.86
2023-05-21T02:34:02.644Z,85.95
2023-05-21T02:36:34.276Z,85.90
2023-05-21T02:39:03.423Z,85.81
2023-05-21T02:41:31.994Z,85.70
2023-05-21T02:43:59.853Z,85.86
2023-05-21T02:46:27.865Z,85.79
2023-05-21T02:48:56.432Z,85.74
2023-05-21T02:51:25.318Z,85.99
2023-05-21T02:53:55.321Z,86.07
2023-05-21T02:56:23.476Z,85.96
2023-05-21T02:58:52.334Z,85.95
2023-05-21T03:01:20.862Z,86.08
2023-05-21T03:03:50.451Z,86.17
2023-05-21T03:06:20.320Z,86.13
2023-05-21T03:08:52.327Z,86.02
2023-05-21T03:11:23.341Z,86.07
2023-05-21T03:13:56.285Z,85.84
2023-05-21T03:16:29.377Z,85.96
2023-05-21T03:19:02.370Z,85.91
2023-05-21T03:21:34.337Z,85.97
2023-05-21T03:24:07.342Z,85.99
2023-05-21T03:26:39.376Z,86.25
2023-05-21T03:29:11.334Z,85.99
2023-05-21T03:31:42.871Z,86.23
2023-05-21T03:34:16.348Z,86.23
2023-05-21T03:36:48.357Z,86.08
2023-05-21T03:39:21.379Z,86.04
2023-05-21T03:41:53.349Z,86.13
2023-05-21T03:44:36.421Z,86.14
2023-05-21T03:47:24.782Z,86.30
2023-05-21T03:49:55.810Z,86.44
2023-05-21T03:52:27.394Z,86.58
2023-05-21T03:54:58.364Z,86.72
2023-05-21T03:57:30.393Z,86.74
2023-05-21T04:00:02.425Z,86.63
2023-05-21T04:02:34.476Z,86.72
2023-05-21T04:12:46.452Z,87.04
2023-05-21T04:15:18.870Z,87.12
2023-05-21T04:17:47.344Z,87.13
2023-05-21T04:20:16.932Z,87.29
2023-05-21T04:22:45.060Z,87.49
2023-05-21T04:25:13.052Z,87.99
2023-05-21T04:27:42.801Z,88.92
2023-05-21T04:30:11.337Z,88.25
2023-05-21T04:32:39.754Z,87.28
2023-05-21T04:35:08.826Z,87.05
2023-05-21T04:37:36.670Z,86.88
2023-05-21T04:40:06.667Z,86.52
2023-05-21T04:42:34.787Z,86.54
2023-05-21T04:45:03.559Z,86.46
2023-05-21T04:47:35.699Z,86.40
2023-05-21T04:50:05.439Z,86.92
2023-05-21T04:52:34.907Z,86.54
2023-05-21T04:55:03.870Z,85.55
2023-05-21T04:57:31.818Z,86.20
2023-05-21T05:00:00.917Z,86.46
2023-05-21T05:02:29.850Z,83.32
2023-05-21T05:04:57.837Z,81.47
2023-05-21T05:07:25.956Z,80.80
2023-05-21T05:09:53.855Z,80.58
2023-05-21T05:12:21.711Z,79.93
2023-05-21T05:14:49.665Z,80.29
2023-05-21T05:17:17.580Z,79.71
2023-05-21T05:19:46.015Z,79.27
2023-05-21T05:22:14.471Z,79.44
2023-05-21T05:24:43.250Z,79.94
2023-05-21T05:27:11.183Z,79.16
2023-05-21T05:29:39.484Z,78.49
2023-05-21T05:32:08.004Z,77.98
2023-05-21T05:34:35.887Z,77.61
2023-05-21T05:37:04.380Z,77.53
2023-05-21T05:39:32.501Z,77.75
2023-05-21T05:42:01.920Z,77.18
2023-05-21T05:44:30.083Z,77.20
2023-05-21T05:46:58.568Z,77.24
2023-05-21T05:49:26.411Z,77.11
2023-05-21T05:51:54.374Z,76.51
2023-05-21T05:54:22.997Z,76.03
2023-05-21T05:56:51.338Z,76.19
2023-05-21T05:59:19.434Z,76.19
2023-05-21T06:01:51.107Z,76.52
2023-05-21T06:04:19.267Z,75.96
2023-05-21T06:06:48.370Z,75.68
2023-05-21T06:09:16.508Z,75.41
2023-05-21T06:11:44.844Z,74.77
2023-05-21T06:14:12.862Z,74.54
2023-05-21T06:16:41.408Z,73.59
2023-05-21T06:19:09.379Z,73.61
2023-05-21T06:21:37.474Z,73.08
2023-05-21T06:24:06.964Z,72.57
2023-05-21T06:26:35.013Z,72.51
2023-05-21T06:29:04.463Z,71.95
2023-05-21T06:31:33.434Z,71.84
2023-05-21T06:34:01.750Z,71.72
2023-05-21T06:36:30.858Z,71.02
2023-05-21T06:38:59.016Z,70.66
2023-05-21T06:41:27.153Z,69.86
2023-05-21T06:43:58.416Z,69.22
2023-05-21T06:46:45.517Z,69.36
2023-05-21T06:49:14.483Z,69.26
2023-05-21T06:51:43.039Z,69.66
2023-05-21T06:54:12.406Z,69.26
2023-05-21T06:56:41.040Z,69.17
2023-05-21T06:59:09.585Z,68.37
2023-05-21T07:01:42.761Z,67.68
2023-05-21T07:04:11.538Z,67.09
2023-05-21T07:06:41.599Z,66.56
2023-05-21T07:09:10.311Z,66.49
2023-05-21T07:11:39.123Z,65.89
2023-05-21T07:14:09.085Z,66.10
2023-05-21T07:16:37.504Z,65.63
2023-05-21T07:19:06.577Z,65.74
2023-05-21T07:21:34.859Z,65.12
2023-05-21T07:24:03.121Z,65.02
2023-05-21T07:26:31.468Z,64.81
2023-05-21T07:28:59.669Z,64.13
2023-05-21T07:31:28.198Z,64.31
2023-05-21T07:33:56.487Z,63.72
2023-05-21T07:36:27.914Z,63.14
2023-05-21T07:38:56.054Z,63.06
2023-05-21T07:41:23.937Z,62.62
2023-05-21T07:43:52.070Z,62.22
2023-05-21T07:46:20.959Z,62.17
2023-05-21T07:48:50.493Z,61.94
2023-05-21T07:51:18.697Z,61.41
2023-05-21T07:53:47.083Z,60.81
2023-05-21T07:56:16.057Z,60.78
2023-05-21T07:58:46.088Z,60.47
2023-05-21T08:01:14.866Z,60.12
2023-05-21T08:03:43.539Z,59.78
2023-05-21T08:06:12.920Z,58.92
2023-05-21T08:08:43.980Z,58.73
2023-05-21T08:11:11.921Z,59.04
2023-05-21T08:13:40.048Z,58.48
2023-05-21T08:16:08.458Z,57.80
2023-05-21T08:18:36.703Z,57.13
2023-05-21T08:21:05.144Z,56.59
2023-05-21T08:23:33.183Z,56.07
2023-05-21T08:26:01.679Z,56.00
2023-05-21T08:28:31.212Z,55.88
2023-05-21T08:31:00.972Z,55.30
2023-05-21T08:33:29.069Z,54.69
2023-05-21T08:35:57.186Z,53.67
2023-05-21T08:38:30.491Z,53.68
2023-05-21T08:41:11.706Z,53.59
2023-05-21T08:43:39.864Z,53.50
2023-05-21T08:46:10.007Z,53.70
2023-05-21T08:48:40.859Z,52.91
2023-05-21T08:51:08.756Z,52.51
2023-05-21T08:53:40.576Z,52.30
2023-05-21T08:56:13.175Z,52.28
2023-05-21T08:58:48.979Z,51.78
2023-05-21T09:01:19.966Z,51.69
2023-05-21T09:03:52.647Z,50.77
2023-05-21T09:06:21.709Z,51.05
2023-05-21T09:08:58.977Z,51.23
2023-05-21T09:11:32.581Z,50.81
2023-05-21T09:14:01.485Z,50.54
2023-05-21T09:16:52.411Z,49.47
2023-05-21T09:19:22.581Z,48.72
2023-05-21T09:21:53.773Z,48.66
2023-05-21T09:24:23.444Z,48.04
2023-05-21T09:26:52.578Z,47.96
2023-05-21T09:29:20.780Z,47.61
2023-05-21T09:31:50.216Z,48.11
2023-05-21T09:34:18.411Z,47.08
2023-05-21T09:36:49.469Z,47.06
2023-05-21T09:39:30.195Z,47.50
2023-05-21T09:42:02.610Z,47.39
2023-05-21T09:44:30.790Z,46.72
2023-05-21T09:47:01.933Z,46.19
2023-05-21T09:49:31.417Z,46.53
2023-05-21T09:52:00.648Z,46.17
2023-05-21T09:54:35.907Z,45.77
2023-05-21T09:57:03.876Z,44.91
2023-05-21T09:59:39.825Z,44.13
2023-05-21T10:02:20.503Z,43.99
2023-05-21T10:04:50.972Z,43.70
2023-05-21T10:07:27.136Z,44.78
2023-05-21T10:09:57.034Z,44.06
2023-05-21T10:12:25.578Z,44.42
2023-05-21T10:15:09.384Z,44.04
2023-05-21T10:17:39.548Z,44.41
2023-05-21T10:20:10.796Z,43.61
2023-05-21T10:22:40.159Z,43.25
2023-05-21T10:25:09.475Z,43.01
2023-05-21T10:27:37.714Z,43.42
2023-05-21T10:30:08.665Z,43.71
2023-05-21T10:32:36.722Z,43.21
2023-05-21T10:35:06.787Z,42.43
2023-05-21T10:37:36.047Z,42.60
2023-05-21T10:40:04.731Z,42.58
2023-05-21T10:42:32.592Z,42.16
2023-05-21T10:45:22.775Z,41.95
2023-05-21T10:48:16.302Z,42.10
2023-05-21T10:50:47.257Z,41.53
2023-05-21T10:53:33.826Z,41.89
2023-05-21T10:56:14.013Z,42.19
2023-05-21T10:59:01.147Z,42.42
2023-05-21T11:01:34.127Z,42.06
2023-05-21T11:04:03.868Z,41.54
2023-05-21T11:06:32.327Z,41.45
2023-05-21T11:09:14.168Z,40.77
2023-05-21T11:11:58.970Z,40.91
2023-05-21T11:14:57.160Z,40.33
2023-05-21T11:17:42.162Z,41.06
2023-05-21T11:20:16.810Z,41.32
2023-05-21T11:22:46.778Z,40.49
2023-05-21T11:25:15.930Z,40.61
2023-05-21T11:27:43.913Z,40.23
2023-05-21T11:30:17.522Z,40.24
2023-05-21T11:33:10.134Z,40.20
2023-05-21T11:35:50.464Z,39.77
2023-05-21T11:38:18.566Z,39.65
2023-05-21T11:40:56.606Z,39.83
2023-05-21T11:43:24.437Z,40.28
2023-05-21T11:45:53.197Z,39.72
2023-05-21T11:48:27.076Z,38.92
2023-05-21T11:50:57.546Z,38.96
2023-05-21T11:53:25.501Z,38.52
2023-05-21T11:55:57.717Z,39.10
2023-05-21T11:58:25.941Z,39.28
2023-05-21T12:00:53.841Z,38.77
2023-05-21T12:03:26.792Z,38.38
2023-05-21T12:05:55.215Z,38.63
2023-05-21T12:08:27.630Z,38.56
2023-05-21T12:11:00.274Z,39.31
2023-05-21T12:13:29.026Z,38.35
2023-05-21T12:15:56.949Z,38.76
2023-05-21T12:18:26.519Z,38.35
2023-05-21T12:20:54.403Z,38.46
2023-05-21T12:23:25.756Z,37.85
2023-05-21T12:25:54.466Z,37.80
2023-05-21T12:28:24.669Z,37.52
2023-05-21T12:30:53.731Z,37.67
2023-05-21T12:33:25.058Z,38.20
2023-05-21T12:35:53.504Z,36.96
2023-05-21T12:38:21.761Z,37.01
2023-05-21T12:40:49.653Z,37.66
2023-05-21T12:43:17.644Z,37.78
2023-05-21T12:45:45.642Z,37.68
2023-05-21T12:48:13.938Z,37.51
2023-05-21T12:50:43.299Z,37.34
2023-05-21T12:53:12.178Z,37.64
2023-05-21T12:55:40.860Z,38.33
2023-05-21T12:58:13.777Z,38.53
2023-05-21T13:00:43.751Z,38.89
2023-05-21T13:03:12.579Z,39.07
2023-05-21T13:05:41.728Z,38.52
2023-05-21T13:08:10.778Z,38.24
2023-05-21T13:10:39.195Z,38.55
2023-05-21T13:13:07.473Z,37.99
2023-05-21T13:15:35.677Z,38.08
2023-05-21T13:18:04.333Z,37.89
2023-05-21T13:20:32.335Z,37.62
2023-05-21T13:23:01.788Z,38.00
2023-05-21T13:25:32.919Z,37.66
2023-05-21T13:28:05.636Z,37.43
2023-05-21T13:30:34.060Z,37.32
2023-05-21T13:33:02.422Z,37.45
2023-05-21T13:35:31.140Z,37.70
2023-05-21T13:37:59.160Z,37.66
2023-05-21T13:40:27.227Z,38.03
2023-05-21T13:42:55.913Z,38.09
2023-05-21T13:45:29.013Z,37.90
2023-05-21T13:47:57.460Z,38.14
2023-05-21T13:50:25.946Z,37.54
2023-05-21T13:52:54.164Z,37.67
2023-05-21T13:55:22.204Z,38.18
2023-05-21T13:57:50.398Z,38.34
2023-05-21T14:00:18.479Z,38.09
2023-05-21T14:02:46.507Z,38.25
2023-05-21T14:05:15.111Z,38.11
2023-05-21T14:07:43.225Z,38.92
2023-05-21T14:10:11.998Z,39.09
2023-05-21T14:12:41.082Z,38.83
2023-05-21T14:15:09.963Z,38.44
2023-05-21T14:17:40.753Z,38.39
2023-05-21T14:20:10.001Z,38.32
2023-05-21T14:22:38.207Z,38.78
2023-05-21T14:25:06.961Z,38.51
2023-05-21T14:27:38.036Z,38.07
2023-05-21T14:30:07.068Z,37.69
2023-05-21T14:32:35.129Z,37.69
2023-05-21T14:35:03.720Z,37.95
2023-05-21T14:37:57.300Z,38.10
2023-05-21T14:40:25.469Z,37.31
2023-05-21T14:42:53.434Z,38.03
2023-05-21T14:45:21.455Z,38.14
2023-05-21T14:47:49.497Z,37.76
2023-05-21T14:50:18.188Z,37.94
2023-05-21T14:52:46.566Z,37.87
2023-05-21T14:55:16.956Z,38.01
2023-05-21T14:57:45.138Z,37.63
2023-05-21T15:00:13.747Z,37.64
2023-05-21T15:02:41.859Z,37.13
2023-05-21T15:05:10.119Z,37.16
2023-05-21T15:07:38.364Z,37.75
2023-05-21T15:10:07.463Z,37.95
2023-05-21T15:12:35.255Z,38.04
2023-05-21T15:15:03.582Z,37.82
2023-05-21T15:17:31.558Z,37.93
2023-05-21T15:20:01.611Z,39.27
2023-05-21T15:22:29.950Z,40.34
2023-05-21T15:24:58.030Z,39.77
2023-05-21T15:27:26.549Z,39.11
2023-05-21T15:29:54.528Z,40.24
2023-05-21T15:32:22.478Z,40.60
2023-05-21T15:34:51.742Z,39.32
2023-05-21T15:37:20.189Z,38.78
2023-05-21T15:39:49.192Z,38.91
2023-05-21T15:42:17.573Z,38.63
2023-05-21T15:44:45.478Z,38.04
2023-05-21T15:47:13.386Z,37.99
2023-05-21T15:49:41.518Z,37.93
2023-05-21T15:52:09.497Z,38.38
2023-05-21T15:54:37.431Z,38.27
2023-05-21T15:57:06.113Z,38.75
2023-05-21T15:59:33.966Z,39.81
2023-05-21T16:02:03.183Z,39.21
2023-05-21T16:04:33.411Z,38.89
2023-05-21T16:07:01.309Z,39.61
2023-05-21T16:09:29.292Z,39.76
2023-05-21T16:11:57.332Z,38.70
2023-05-21T16:14:25.402Z,38.62
2023-05-21T16:16:53.238Z,38.74
2023-05-21T16:19:21.502Z,39.41
2023-05-21T16:21:50.256Z,39.84
2023-05-21T16:24:18.413Z,39.80
2023-05-21T16:26:46.340Z,39.08
2023-05-21T16:29:14.210Z,39.64
2023-05-21T16:31:42.323Z,39.18
2023-05-21T16:34:10.180Z,39.39
2023-05-21T16:36:38.497Z,39.65
2023-05-21T16:39:06.317Z,39.59
2023-05-21T16:41:34.272Z,38.96
2023-05-21T16:44:02.235Z,39.02
2023-05-21T16:46:30.240Z,39.69
2023-05-21T16:48:58.295Z,40.26
2023-05-21T16:51:26.321Z,40.97
2023-05-21T16:53:54.352Z,40.80
2023-05-21T16:56:22.304Z,40.51
2023-05-21T16:58:50.227Z,40.23
2023-05-21T17:01:18.105Z,40.87
2023-05-21T17:03:46.275Z,40.98
2023-05-21T17:06:15.080Z,40.88
2023-05-21T17:08:43.006Z,41.02
2023-05-21T17:11:11.284Z,41.10
2023-05-21T17:13:39.217Z,41.26
2023-05-21T17:16:07.196Z,41.67
2023-05-21T17:18:35.242Z,41.93
2023-05-21T17:21:03.071Z,42.14
2023-05-21T17:23:31.102Z,42.36
2023-05-21T17:25:59.065Z,42.95
2023-05-21T17:28:27.350Z,42.84
2023-05-21T17:30:56.363Z,43.12
2023-05-21T17:33:25.307Z,43.45
2023-05-21T17:35:53.247Z,43.37
2023-05-21T17:38:21.073Z,43.67
2023-05-21T17:40:50.281Z,43.84
2023-05-21T17:43:18.513Z,43.95
2023-05-21T17:45:46.473Z,43.83
2023-05-21T17:48:14.438Z,43.54
2023-05-21T17:50:42.439Z,43.27
2023-05-21T17:53:10.403Z,43.91
2023-05-21T17:55:38.825Z,44.89
2023-05-21T17:58:07.444Z,45.05
2023-05-21T18:00:36.211Z,45.89
2023-05-21T18:03:04.314Z,46.10
2023-05-21T18:05:32.504Z,46.19
2023-05-21T18:08:04.536Z,46.94
2023-05-21T18:10:32.568Z,46.71
2023-05-21T18:13:00.702Z,47.00
2023-05-21T18:15:28.856Z,47.46
2023-05-21T18:17:56.821Z,47.48
2023-05-21T18:20:24.894Z,47.17
2023-05-21T18:22:52.793Z,47.13
2023-05-21T18:25:20.843Z,47.19
2023-05-21T18:27:48.672Z,47.47
2023-05-21T18:30:16.610Z,47.36
2023-05-21T18:32:44.755Z,47.52
2023-05-21T18:35:14.438Z,47.70
2023-05-21T18:37:46.560Z,48.00
2023-05-21T18:40:15.206Z,48.27
2023-05-21T18:42:43.115Z,48.54
2023-05-21T18:45:11.569Z,48.77
2023-05-21T18:47:40.509Z,48.93
2023-05-21T18:50:13.783Z,49.25
2023-05-21T18:52:41.962Z,49.37
2023-05-21T18:55:10.475Z,49.66
2023-05-21T18:57:38.970Z,49.84
2023-05-21T19:00:09.719Z,49.99
2023-05-21T19:02:38.163Z,50.16
2023-05-21T19:05:07.561Z,50.39
2023-05-21T19:07:36.466Z,50.73
2023-05-21T19:10:06.427Z,50.99
2023-05-21T19:12:36.327Z,51.42
2023-05-21T19:15:05.301Z,51.74
2023-05-21T19:17:35.259Z,51.89
2023-05-21T19:20:05.554Z,51.98
2023-05-21T19:22:34.183Z,52.37
2023-05-21T19:25:02.533Z,52.58
2023-05-21T19:27:30.805Z,52.90
2023-05-21T19:29:58.715Z,53.18
2023-05-21T19:32:27.255Z,53.53
2023-05-21T19:34:58.184Z,53.79
2023-05-21T19:37:26.488Z,54.17
2023-05-21T19:39:54.983Z,54.53
2023-05-21T19:42:23.324Z,54.63
2023-05-21T19:44:53.910Z,54.84
2023-05-21T19:47:22.139Z,55.11
2023-05-21T19:49:50.435Z,55.28
2023-05-21T19:52:18.694Z,55.51
2023-05-21T19:54:46.627Z,55.57
2023-05-21T19:57:14.830Z,55.86
2023-05-21T19:59:42.763Z,56.16
2023-05-21T20:02:13.355Z,56.40
2023-05-21T20:04:41.555Z,56.92
2023-05-21T20:07:09.726Z,57.15
2023-05-21T20:09:38.250Z,57.55
2023-05-21T20:12:06.959Z,57.82
2023-05-21T20:14:36.049Z,57.98
2023-05-21T20:17:05.891Z,58.25
2023-05-21T20:19:35.107Z,58.66
2023-05-21T20:22:03.307Z,58.66
2023-05-21T20:24:31.441Z,58.94
2023-05-21T20:27:01.697Z,59.19
2023-05-21T20:29:29.828Z,59.22
2023-05-21T20:31:58.157Z,59.26
2023-05-21T20:34:27.475Z,59.20
2023-05-21T20:36:58.264Z,59.43
2023-05-21T20:39:30.046Z,59.70
2023-05-21T20:41:58.664Z,59.87
2023-05-21T20:44:27.709Z,60.03
2023-05-21T20:46:55.575Z,60.35
2023-05-21T20:49:25.089Z,60.59
2023-05-21T20:51:53.897Z,60.91
2023-05-21T20:54:22.409Z,61.40
2023-05-21T20:56:50.997Z,61.66
2023-05-21T20:59:19.117Z,61.93
2023-05-21T21:01:47.114Z,62.14
2023-05-21T21:04:15.136Z,62.69
2023-05-21T21:06:42.968Z,62.81
2023-05-21T21:09:10.814Z,62.87
2023-05-21T21:11:38.740Z,63.36
2023-05-21T21:14:07.315Z,63.35
2023-05-21T21:16:35.210Z,63.47
2023-05-21T21:19:03.321Z,63.81
2023-05-21T21:21:31.892Z,63.93
2023-05-21T21:23:59.872Z,64.17
2023-05-21T21:26:27.749Z,64.35
2023-05-21T21:36:29.148Z,65.11
2023-05-21T21:38:57.442Z,65.41
2023-05-21T21:41:25.978Z,65.63
2023-05-21T21:43:53.932Z,65.81
2023-05-21T21:46:21.815Z,65.97
2023-05-21T21:48:49.754Z,66.19
2023-05-21T21:51:17.761Z,66.17
2023-05-21T21:53:46.594Z,66.41
2023-05-21T21:56:14.911Z,66.68
2023-05-21T21:58:43.378Z,66.73
2023-05-21T22:01:11.443Z,66.76
2023-05-21T22:03:39.407Z,66.97
2023-05-21T22:06:07.443Z,67.13
2023-05-21T22:08:35.290Z,67.20
2023-05-21T22:11:03.256Z,67.49
2023-05-21T22:13:31.158Z,67.63
2023-05-21T22:15:59.079Z,67.76
2023-05-21T22:18:39.717Z,67.86
2023-05-21T22:21:14.610Z,68.21
2023-05-21T22:23:42.500Z,68.50
2023-05-21T22:26:10.686Z,68.53
2023-05-21T22:28:38.660Z,68.78
2023-05-21T22:31:07.893Z,69.03
2023-05-21T22:33:36.796Z,68.89
2023-05-21T22:36:05.711Z,69.34
2023-05-21T22:38:34.106Z,69.38
2023-05-21T22:41:02.079Z,69.68
2023-05-21T22:43:30.579Z,69.90
2023-05-21T22:45:58.422Z,70.12
2023-05-21T22:48:26.452Z,70.24
2023-05-21T22:50:54.931Z,70.36
2023-05-21T22:53:23.780Z,70.38
2023-05-21T22:55:51.585Z,70.70
2023-05-21T22:58:19.525Z,70.60
2023-05-21T23:00:48.305Z,70.79
2023-05-21T23:03:16.932Z,70.85
2023-05-21T23:05:45.980Z,70.92
2023-05-21T23:08:14.272Z,71.07
2023-05-21T23:10:42.410Z,71.36
2023-05-21T23:13:10.543Z,71.35
2023-05-21T23:15:39.237Z,71.51
2023-05-21T23:18:08.757Z,71.71
2023-05-21T23:20:37.393Z,71.64
2023-05-21T23:23:06.128Z,71.84
2023-05-21T23:25:35.367Z,72.11
2023-05-21T23:28:04.509Z,72.02
2023-05-21T23:30:32.360Z,72.09
2023-05-21T23:33:00.728Z,72.49
2023-05-21T23:35:28.869Z,72.29
2023-05-21T23:37:56.778Z,72.67
2023-05-21T23:40:24.700Z,72.47
2023-05-21T23:42:52.788Z,72.72
2023-05-21T23:45:20.825Z,72.89
2023-05-21T23:47:48.896Z,73.02
2023-05-21T23:50:16.983Z,73.16
2023-05-21T23:52:45.097Z,73.30
2023-05-21T23:55:14.899Z,73.56
2023-05-21T23:57:43.254Z,73.79
